Stations météo

réclame
Mon MeteoGroup
Heino aws, Pays-Bas (6278): Température de l'air & dewpoint: 16.10.2017 01:00:00 - 22.10.2017 01:00:00 (CEST)Heino aws, Pays-Bas (6278): Température de l'air 5cm: 16.10.2017 01:00:00 - 22.10.2017 01:00:00 (CEST)Heino aws, Pays-Bas (6278): Vitesse du vent & gusts: 16.10.2017 01:00:00 - 22.10.2017 01:00:00 (CEST)Heino aws, Pays-Bas (6278): Direction du vent: 16.10.2017 01:00:00 - 22.10.2017 01:00:00 (CEST)Heino aws, Pays-Bas (6278): Quantités de précipitations: 16.10.2017 01:00:00 - 22.10.2017 01:00:00 (CEST)
Date & Time tt [°C] td [°C] tt 5cm [°C] ff [km/h] ff [knt] fx [km/h] fx [knt] dd rr [mm]
22.10.2017 01:00:00 10,8 8,7 9,3 12 6 - - S -
22.10.2017 00:00:00 10,4 8,2 8,5 11 6 22 12 S 0,0
21.10.2017 23:00:00 11,1 8,4 9,5 7 4 22 12 S 0,0
21.10.2017 22:00:00 11,1 9,2 9,9 7 4 40 21 S 0,2
21.10.2017 21:00:00 13,4 8,5 11,9 7 4 18 10 S 0,0
21.10.2017 20:00:00 13,9 7,9 12,4 11 6 18 10 S 0,0
21.10.2017 19:00:00 14,9 8,2 12,7 11 6 22 12 S 0,0
21.10.2017 18:00:00 15,4 9,4 13,8 11 6 22 12 SSW 0,0
21.10.2017 17:00:00 17,0 9,3 16,5 14 8 36 19 SSW 0,0
21.10.2017 16:00:00 17,6 10,8 17,8 18 10 40 21 SW 0,0
21.10.2017 15:00:00 17,7 11,5 18,7 22 12 32 18 SW 0,0
21.10.2017 14:00:00 15,8 13,8 15,4 11 6 25 14 SSW 0,0
21.10.2017 13:00:00 14,5 13,0 14,8 14 8 25 14 S 0,0
21.10.2017 12:00:00 13,0 12,1 12,9 11 6 29 16 S 0,0
21.10.2017 11:00:00 12,0 11,1 11,9 11 6 29 16 S 0,1
21.10.2017 10:00:00 11,6 10,4 11,5 7 4 25 14 SSE 0,9
21.10.2017 09:00:00 12,0 9,0 11,2 11 6 29 16 SSE 0,0
21.10.2017 08:00:00 11,1 8,6 10,3 11 6 - - SE 0,0
21.10.2017 07:00:00 11,0 8,5 10,5 7 4 18 10 SSE 0,0
21.10.2017 06:00:00 10,8 8,1 10,2 11 6 18 10 S 0,0
21.10.2017 05:00:00 10,6 7,9 10,0 7 4 - - S 0,0
21.10.2017 04:00:00 10,3 8,3 9,4 7 4 18 10 S 0,0
21.10.2017 03:00:00 9,7 8,1 7,9 7 4 18 10 S 0,0
21.10.2017 02:00:00 11,1 8,2 10,2 7 4 - - S 0,0
21.10.2017 01:00:00 11,8 8,4 10,6 14 8 25 14 SSW 0,0
21.10.2017 00:00:00 12,3 8,7 11,3 14 8 29 16 SSW 0,0
20.10.2017 23:00:00 12,9 9,2 12,1 18 10 - - SW 0,0
20.10.2017 22:00:00 12,4 9,6 11,6 18 10 32 18 SW 0,2
20.10.2017 21:00:00 12,1 10,1 11,5 18 10 40 21 SSW 0,4
20.10.2017 20:00:00 12,0 11,0 11,7 18 10 40 21 SSW 0,3
20.10.2017 19:00:00 12,3 11,2 12,1 18 10 40 21 SSW 0,0
20.10.2017 18:00:00 12,4 11,4 12,0 18 10 32 18 SSW 0,2
20.10.2017 17:00:00 12,5 11,2 12,4 22 12 40 21 SSW 0,0
20.10.2017 16:00:00 13,3 10,6 12,8 22 12 40 21 SSW 0,0
20.10.2017 15:00:00 13,2 11,0 13,1 18 10 36 19 SSW 0,3
20.10.2017 14:00:00 14,9 10,0 14,5 22 12 40 21 SSW 0,0
20.10.2017 13:00:00 15,4 9,8 15,2 14 8 47 25 SSW 0,0
20.10.2017 12:00:00 15,5 10,5 16,0 18 10 36 19 SSW 0,0
20.10.2017 11:00:00 15,2 13,2 15,4 14 8 40 21 SSW 3,7
20.10.2017 10:00:00 14,8 13,4 14,4 14 8 29 16 SE 0,4
20.10.2017 09:00:00 15,4 12,9 14,5 11 6 25 14 SSE 0,0
20.10.2017 08:00:00 15,3 12,5 14,3 14 8 29 16 SE 0,0
20.10.2017 07:00:00 15,6 12,3 14,5 11 6 29 16 SSE 0,0
20.10.2017 06:00:00 15,8 12,4 14,5 11 6 22 12 SSE 0,0
20.10.2017 05:00:00 15,4 13,1 14,3 11 6 22 12 SSE 0,0
20.10.2017 04:00:00 15,6 13,2 14,8 11 6 22 12 SE 0,1
20.10.2017 03:00:00 15,8 13,3 14,9 7 4 18 10 SE 0,1
20.10.2017 02:00:00 16,4 13,2 15,5 7 4 18 10 SSE 0,0
20.10.2017 01:00:00 16,3 13,2 14,6 7 4 18 10 SE 0,0
20.10.2017 00:00:00 16,6 13,3 15,0 7 4 18 10 SE 0,0
19.10.2017 23:00:00 16,4 13,3 15,1 11 6 18 10 SE 0,0
19.10.2017 22:00:00 16,3 13,2 14,1 7 4 18 10 SE 0,0
19.10.2017 21:00:00 15,3 13,0 13,1 7 4 14 8 ESE 0,0
19.10.2017 20:00:00 15,5 13,1 12,2 7 4 11 6 ESE 0,0
19.10.2017 19:00:00 16,5 13,2 13,6 7 4 14 8 ESE 0,0
19.10.2017 18:00:00 18,0 13,2 16,3 7 4 14 8 ESE 0,0
19.10.2017 17:00:00 18,9 13,4 17,8 7 4 18 10 ESE 0,0
19.10.2017 16:00:00 19,9 14,1 19,7 11 6 22 12 SE 0,0
19.10.2017 15:00:00 20,2 13,3 21,1 11 6 22 12 S 0,0
19.10.2017 14:00:00 19,3 13,4 20,1 11 6 18 10 SE 0,0
19.10.2017 13:00:00 18,3 13,8 18,8 11 6 22 12 SE 0,0
19.10.2017 12:00:00 17,1 13,2 18,0 11 6 18 10 SE 0,0
19.10.2017 11:00:00 14,8 12,6 14,8 7 4 14 8 SE 0,0
19.10.2017 10:00:00 13,3 12,4 13,2 7 4 11 6 ESE 0,0
19.10.2017 09:00:00 11,8 11,7 11,1 4 2 11 6 ESE 0,0
19.10.2017 08:00:00 11,0 11,0 9,6 4 2 7 4 ESE 0,0
19.10.2017 07:00:00 11,4 11,3 9,2 4 2 7 4 SE 0,0
19.10.2017 06:00:00 11,5 11,4 9,9 4 2 7 4 SSE 0,0
19.10.2017 05:00:00 11,6 11,5 11,1 4 2 7 4 ESE 0,0
19.10.2017 04:00:00 12,1 12,0 11,9 4 2 7 4 SE 0,0
19.10.2017 03:00:00 12,2 12,1 11,9 4 2 7 4 ESE 0,0
19.10.2017 02:00:00 12,1 12,0 11,8 4 2 11 6 E 0,0
19.10.2017 01:00:00 12,1 12,0 12,0 7 4 18 10 E 0,0
19.10.2017 00:00:00 12,4 12,3 12,3 11 6 14 8 E 0,0
18.10.2017 23:00:00 11,8 11,7 10,3 7 4 11 6 E 0,0
18.10.2017 22:00:00 11,4 11,3 8,6 4 2 7 4 E 0,0
18.10.2017 21:00:00 11,2 11,1 8,2 4 2 4 2 NNE 0,0
18.10.2017 20:00:00 12,1 12,0 9,2 0 0 7 4 N 0,0
18.10.2017 19:00:00 13,7 13,6 10,8 0 0 4 2 N 0,0
18.10.2017 18:00:00 16,4 14,3 14,8 0 0 11 6 N 0,0
18.10.2017 17:00:00 17,3 14,5 17,0 7 4 14 8 E 0,0
18.10.2017 16:00:00 18,1 14,2 18,7 7 4 14 8 E 0,0
18.10.2017 15:00:00 17,9 13,7 19,0 11 6 14 8 E 0,0
18.10.2017 14:00:00 16,9 13,4 18,1 11 6 18 10 ENE 0,0
18.10.2017 13:00:00 16,5 12,7 17,6 11 6 18 10 E 0,0
18.10.2017 12:00:00 15,2 12,1 16,3 11 6 18 10 ENE 0,0
18.10.2017 11:00:00 13,3 11,0 13,7 11 6 18 10 ENE 0,0
18.10.2017 10:00:00 11,7 10,6 11,5 7 4 11 6 NE 0,0
18.10.2017 09:00:00 10,0 9,9 8,4 4 2 7 4 NNE 0,0
18.10.2017 08:00:00 9,7 9,6 7,4 7 4 11 6 E 0,0
18.10.2017 07:00:00 10,6 10,4 8,8 4 2 7 4 ENE 0,0
18.10.2017 06:00:00 11,1 11,0 11,1 4 2 7 4 E 0,0
18.10.2017 05:00:00 10,8 10,7 10,9 4 2 7 4 E 0,0
18.10.2017 04:00:00 10,4 10,3 10,5 4 2 7 4 E 0,0
18.10.2017 03:00:00 9,4 9,3 9,4 0 0 4 2 N 0,0
18.10.2017 02:00:00 7,4 7,3 5,8 0 0 4 2 N 0,0
18.10.2017 01:00:00 8,0 7,7 6,9 4 2 4 2 SSE 0,0
18.10.2017 00:00:00 8,6 8,5 6,3 0 0 4 2 N 0,0
17.10.2017 23:00:00 9,8 9,3 7,9 0 0 11 6 N 0,0
17.10.2017 22:00:00 10,9 10,3 8,3 4 2 7 4 S 0,0
17.10.2017 21:00:00 11,8 10,6 9,6 4 2 11 6 SSW 0,0
17.10.2017 20:00:00 11,7 10,6 9,7 7 4 11 6 SSW 0,0
17.10.2017 19:00:00 12,5 11,1 10,7 4 2 7 4 S 0,0
17.10.2017 18:00:00 13,8 11,4 12,7 7 4 14 8 SSW 0,0
17.10.2017 17:00:00 14,5 11,6 13,9 7 4 18 10 SW 0,0
17.10.2017 16:00:00 15,0 11,6 14,6 11 6 25 14 SW 0,0
17.10.2017 15:00:00 15,3 11,6 15,1 11 6 29 16 SW 0,0
17.10.2017 14:00:00 15,3 11,2 15,2 14 8 25 14 SW 0,0
17.10.2017 13:00:00 15,2 11,8 15,4 11 6 18 10 SW 0,0
17.10.2017 12:00:00 14,9 11,8 14,9 11 6 22 12 SSW 0,0
17.10.2017 11:00:00 14,5 11,5 14,6 14 8 22 12 SSW 0,0
17.10.2017 10:00:00 13,5 11,1 12,8 11 6 18 10 SSW 0,0
17.10.2017 09:00:00 13,1 10,8 12,0 11 6 18 10 SSW 0,0
17.10.2017 08:00:00 13,1 10,6 11,8 11 6 22 12 SSW 0,0
17.10.2017 07:00:00 13,8 10,7 12,5 11 6 22 12 SSW 0,0
17.10.2017 06:00:00 14,5 10,9 13,1 11 6 18 10 SSW 0,0
17.10.2017 05:00:00 15,7 11,2 14,3 11 6 22 12 SW 0,0
17.10.2017 04:00:00 15,9 11,6 14,4 11 6 22 12 WSW 0,0
17.10.2017 03:00:00 15,6 14,1 13,5 7 4 14 8 WSW 0,0
17.10.2017 02:00:00 16,8 14,2 14,6 7 4 18 10 SW 0,0
17.10.2017 01:00:00 17,8 14,5 16,0 11 6 18 10 SSW 0,0
17.10.2017 00:00:00 18,4 14,9 16,8 11 6 18 10 S 0,0
16.10.2017 23:00:00 19,2 15,2 17,6 11 6 22 12 S 0,0
16.10.2017 22:00:00 19,6 15,4 17,5 11 6 22 12 S 0,0
16.10.2017 21:00:00 19,7 15,8 17,5 7 4 18 10 SSE 0,0
16.10.2017 20:00:00 19,8 16,5 17,4 7 4 18 10 SSE 0,0
16.10.2017 19:00:00 20,6 17,1 18,6 7 4 18 10 SSE 0,0
16.10.2017 18:00:00 21,5 17,4 19,8 7 4 14 8 SE 0,0
16.10.2017 17:00:00 23,0 17,6 22,3 7 4 22 12 SE 0,0
16.10.2017 16:00:00 23,3 16,9 23,4 7 4 18 10 S 0,0
16.10.2017 15:00:00 22,9 16,6 23,5 11 6 25 14 S 0,0
16.10.2017 14:00:00 22,2 17,1 22,8 11 6 22 12 S 0,0
16.10.2017 13:00:00 21,0 15,9 22,0 11 6 18 10 S 0,0
16.10.2017 12:00:00 19,8 15,8 20,3 11 6 22 12 S 0,0
16.10.2017 11:00:00 18,2 14,6 18,5 7 4 22 12 S 0,0
16.10.2017 10:00:00 16,0 13,4 15,5 11 6 18 10 S 0,0
16.10.2017 09:00:00 14,1 13,0 13,1 7 4 14 8 S 0,0
16.10.2017 08:00:00 14,3 13,1 13,3 7 4 18 10 S 0,0
16.10.2017 07:00:00 13,9 13,0 12,9 7 4 14 8 SSE 0,0
16.10.2017 06:00:00 13,7 12,9 12,3 7 4 14 8 S 0,0
16.10.2017 05:00:00 13,8 12,8 12,3 4 2 14 8 S 0,0
16.10.2017 04:00:00 14,0 12,8 12,5 7 4 18 10 S 0,0
16.10.2017 03:00:00 14,4 12,9 13,1 7 4 14 8 S 0,0
16.10.2017 02:00:00 14,9 12,9 13,1 7 4 14 8 S 0,0
16.10.2017 01:00:00 15,3 13,1 13,7 7 4 18 10 S 0,0

tt = Température de l'air
td = dewpoint
tt 5cm = Température de l'air 5cm
ff = Vitesse du vent
fx = gusts
dd = Direction du vent
rr = Quantités de précipitations

stations d'obs. à proximité